Time;durP1;ratioP1;P1;durP2;ratioP2;P2;SDS_P1;SDS_P2;PMS_P1;PMS_P2;Temp;Humidity;BMP_temperature;BMP_pressure;BME280_temperature;BME280_humidity;BME280_pressure;Samples;Min_cycle;Max_cycle;Signal;HPM_P1;HPM_P2
2021/11/25 00:01:56;;;;;;;4.25;1.70;;;4.60;93.30;;;;;;5095673;28;20507;-77
2021/11/25 00:04:22;;;;;;;3.70;1.55;;;4.50;93.30;;;;;;5123215;28;20043;-78
2021/11/25 00:06:48;;;;;;;2.55;1.40;;;4.50;93.40;;;;;;5082577;28;20488;-78
2021/11/25 00:09:14;;;;;;;2.17;1.27;;;4.50;93.40;;;;;;5099950;28;20066;-78
2021/11/25 00:11:40;;;;;;;3.70;1.42;;;4.30;93.40;;;;;;5107145;28;20233;-78
2021/11/25 00:14:06;;;;;;;2.25;1.17;;;4.40;93.40;;;;;;5102349;28;20424;-77
2021/11/25 00:16:32;;;;;;;3.05;1.30;;;4.30;93.40;;;;;;5114008;28;20046;-77
2021/11/25 00:18:58;;;;;;;4.90;1.70;;;4.30;93.40;;;;;;5097212;28;20040;-78
2021/11/25 00:21:24;;;;;;;2.70;1.27;;;4.30;93.40;;;;;;5060848;28;20043;-77
2021/11/25 00:23:50;;;;;;;3.15;1.45;;;4.30;93.40;;;;;;5061581;28;20050;-76
2021/11/25 00:26:17;;;;;;;3.90;1.65;;;4.30;93.70;;;;;;5118219;28;20036;-79
2021/11/25 00:28:42;;;;;;;3.65;1.40;;;4.20;93.40;;;;;;5114751;28;20074;-76
2021/11/25 00:31:08;;;;;;;2.80;1.05;;;4.20;93.40;;;;;;5115755;28;20043;-79
2021/11/25 00:33:34;;;;;;;3.20;1.50;;;4.20;93.40;;;;;;5077612;28;20052;-76
2021/11/25 00:36:00;;;;;;;4.05;1.40;;;4.20;93.40;;;;;;5078068;28;20451;-76
2021/11/25 00:38:26;;;;;;;3.90;1.70;;;4.20;93.40;;;;;;5094968;28;20043;-77
2021/11/25 00:40:51;;;;;;;3.33;1.60;;;4.20;93.40;;;;;;5078332;28;20583;-76
2021/11/25 00:43:17;;;;;;;4.60;1.40;;;4.30;93.40;;;;;;5113503;28;20089;-77
2021/11/25 00:45:43;;;;;;;3.13;1.50;;;4.20;93.30;;;;;;5076091;28;20104;-78
2021/11/25 00:48:09;;;;;;;2.80;1.35;;;4.20;93.30;;;;;;5094535;28;20073;-78
2021/11/25 00:53:48;;;;;;;2.90;1.10;;;4.20;93.30;;;;;;4966301;28;20405;-77
2021/11/25 01:05:08;;;;;;;2.60;1.17;;;4.20;93.20;;;;;;4893905;29;20064;-79
2021/11/25 01:07:34;;;;;;;2.05;0.85;;;4.20;93.20;;;;;;4876218;29;20048;-77
2021/11/25 01:10:00;;;;;;;2.50;1.08;;;4.10;93.20;;;;;;4894511;29;20115;-78
2021/11/25 01:12:28;;;;;;;3.90;1.40;;;4.10;93.20;;;;;;4879561;29;20075;-78
2021/11/25 01:14:55;;;;;;;2.83;1.38;;;4.10;93.20;;;;;;4894660;29;20380;-77
2021/11/25 01:17:20;;;;;;;3.78;1.35;;;4.10;93.20;;;;;;4879116;29;20055;-80
2021/11/25 01:19:46;;;;;;;3.53;1.48;;;4.00;93.10;;;;;;4887687;29;20080;-79
2021/11/25 01:22:12;;;;;;;3.30;1.20;;;4.10;93.20;;;;;;4901117;29;20068;-79
2021/11/25 01:24:38;;;;;;;3.42;1.23;;;4.00;93.20;;;;;;4939915;29;20426;-80
2021/11/25 01:27:05;;;;;;;3.28;1.40;;;4.00;93.20;;;;;;5041519;28;20130;-77
2021/11/25 01:29:30;;;;;;;1.83;0.95;;;3.90;93.20;;;;;;5094000;28;20046;-78
2021/11/25 01:31:56;;;;;;;4.00;1.58;;;3.90;93.20;;;;;;5094271;28;20052;-82
2021/11/25 01:34:25;;;;;;;2.70;1.10;;;3.90;93.30;;;;;;5079191;28;20389;-82
2021/11/25 01:36:54;;;;;;;3.78;1.70;;;3.90;93.30;;;;;;5098221;28;20099;-82
2021/11/25 01:39:23;;;;;;;3.13;1.20;;;3.90;93.20;;;;;;5064780;28;20059;-83
2021/11/25 01:41:48;;;;;;;2.55;1.20;;;3.90;93.30;;;;;;5098058;28;20035;-82
2021/11/25 01:44:15;;;;;;;3.30;1.30;;;3.90;93.20;;;;;;5098554;28;20479;-82
2021/11/25 01:46:41;;;;;;;2.33;1.02;;;4.10;93.30;;;;;;5071701;28;20035;-82
2021/11/25 01:49:07;;;;;;;3.08;1.30;;;4.10;93.30;;;;;;5121108;28;20087;-82
2021/11/25 01:51:33;;;;;;;2.45;1.05;;;4.00;93.20;;;;;;5098759;28;20036;-82
2021/11/25 01:53:59;;;;;;;2.08;0.80;;;3.90;93.20;;;;;;5117516;28;20047;-83
2021/11/25 01:56:25;;;;;;;2.67;1.20;;;3.90;93.20;;;;;;5117118;28;20035;-82
2021/11/25 01:58:51;;;;;;;3.55;1.30;;;4.00;93.20;;;;;;5122759;28;20039;-81
2021/11/25 02:01:19;;;;;;;3.30;1.30;;;4.10;93.20;;;;;;5110528;28;20525;-81
2021/11/25 02:03:46;;;;;;;2.03;1.00;;;4.00;93.10;;;;;;5094400;28;20036;-81
2021/11/25 02:06:14;;;;;;;2.42;1.20;;;4.10;93.10;;;;;;5131890;28;20077;-82
2021/11/25 02:08:41;;;;;;;2.72;1.33;;;4.10;93.10;;;;;;5128429;28;20047;-81
2021/11/25 02:11:07;;;;;;;2.90;1.10;;;4.10;93.10;;;;;;5095949;28;20028;-81
2021/11/25 02:13:33;;;;;;;2.75;1.20;;;4.10;93.10;;;;;;5095493;28;20093;-82
2021/11/25 02:15:59;;;;;;;1.92;1.10;;;4.20;93.10;;;;;;5111418;28;20048;-81
2021/11/25 02:18:26;;;;;;;3.05;1.35;;;4.10;93.00;;;;;;5110225;28;20036;-81
2021/11/25 02:20:58;;;;;;;2.20;1.20;;;4.10;93.00;;;;;;5092953;28;20051;-81
2021/11/25 02:23:24;;;;;;;2.88;1.25;;;4.10;93.00;;;;;;5094939;28;20096;-81
2021/11/25 02:25:53;;;;;;;3.63;1.80;;;4.20;93.00;;;;;;5092282;28;20415;-82
2021/11/25 02:28:20;;;;;;;2.70;1.42;;;4.20;93.00;;;;;;5108280;28;20111;-81
2021/11/25 02:30:47;;;;;;;1.75;0.93;;;4.20;93.00;;;;;;5048047;28;20106;-81
2021/11/25 02:33:13;;;;;;;2.97;1.25;;;4.30;93.00;;;;;;5045334;28;20055;-81
2021/11/25 02:35:40;;;;;;;4.18;1.80;;;4.20;93.00;;;;;;5050220;28;20052;-81
2021/11/25 02:38:07;;;;;;;2.05;1.02;;;4.20;93.00;;;;;;5059118;28;20129;-82
2021/11/25 02:40:36;;;;;;;3.08;1.33;;;4.30;93.00;;;;;;5030475;28;20055;-82
2021/11/25 02:43:08;;;;;;;2.55;1.17;;;4.20;92.90;;;;;;5035813;28;20056;-81
2021/11/25 02:45:46;;;;;;;3.15;1.15;;;4.30;93.00;;;;;;5052584;28;20139;-81
2021/11/25 02:48:13;;;;;;;2.95;1.50;;;4.30;93.00;;;;;;5039139;28;20048;-81
2021/11/25 02:50:39;;;;;;;2.45;1.20;;;4.20;92.90;;;;;;5051150;28;20048;-81
2021/11/25 02:53:05;;;;;;;2.47;1.17;;;4.20;93.00;;;;;;5053120;28;20052;-81
2021/11/25 02:55:31;;;;;;;1.52;0.90;;;4.20;93.00;;;;;;5035433;28;20041;-81
2021/11/25 02:57:56;;;;;;;2.78;1.13;;;4.20;93.00;;;;;;5049708;28;20487;-82
2021/11/25 03:00:35;;;;;;;3.00;1.38;;;4.20;93.00;;;;;;5047907;28;20097;-81
2021/11/25 03:03:06;;;;;;;3.45;1.20;;;4.10;93.00;;;;;;5129948;28;20040;-81
2021/11/25 03:05:32;;;;;;;2.60;1.40;;;4.20;93.00;;;;;;5115241;28;20048;-81
2021/11/25 03:08:04;;;;;;;2.28;1.20;;;4.20;93.00;;;;;;5093587;28;20478;-81
2021/11/25 03:10:39;;;;;;;;;;;4.30;93.10;;;;;;5129407;28;20111;-82
2021/11/25 03:13:06;;;;;;;2.60;1.05;;;4.30;93.00;;;;;;5126241;28;20387;-82
2021/11/25 03:15:34;;;;;;;3.80;1.70;;;4.30;93.00;;;;;;5109950;28;20040;-82
2021/11/25 03:18:01;;;;;;;3.15;1.15;;;4.30;93.00;;;;;;5092316;28;20085;-82
2021/11/25 03:20:28;;;;;;;1.98;1.10;;;4.30;93.00;;;;;;5107965;28;20128;-82
2021/11/25 03:22:53;;;;;;;2.42;1.10;;;4.30;93.00;;;;;;5092006;28;20047;-82
2021/11/25 03:25:19;;;;;;;2.95;1.20;;;4.20;92.90;;;;;;5092644;28;20043;-82
2021/11/25 03:27:45;;;;;;;2.78;1.60;;;4.30;93.00;;;;;;5112016;28;20439;-82
2021/11/25 03:30:11;;;;;;;2.75;1.35;;;4.20;92.90;;;;;;5097228;28;20548;-82
2021/11/25 03:32:37;;;;;;;3.60;1.58;;;4.30;93.00;;;;;;5093790;28;20046;-82
2021/11/25 03:35:04;;;;;;;2.70;1.20;;;4.30;93.00;;;;;;5091616;28;20544;-82
2021/11/25 03:37:29;;;;;;;2.00;0.93;;;4.30;93.00;;;;;;5110112;28;20016;-82
2021/11/25 03:39:55;;;;;;;1.50;1.10;;;4.40;93.00;;;;;;5130631;28;20039;-82
2021/11/25 03:42:21;;;;;;;1.98;1.08;;;4.30;93.00;;;;;;5111282;28;20036;-82
2021/11/25 03:44:47;;;;;;;2.72;1.30;;;4.30;93.00;;;;;;5094363;28;20519;-82
2021/11/25 03:47:13;;;;;;;2.10;1.20;;;4.30;92.90;;;;;;5095680;28;20035;-82
2021/11/25 03:49:40;;;;;;;3.42;1.83;;;4.40;93.00;;;;;;5108106;28;20074;-82
2021/11/25 03:52:06;;;;;;;2.33;1.30;;;4.40;93.00;;;;;;5113180;28;20163;-82
2021/11/25 03:54:31;;;;;;;2.55;1.40;;;4.40;93.00;;;;;;5094650;28;20057;-82
2021/11/25 03:56:57;;;;;;;2.75;1.30;;;4.40;92.90;;;;;;5094319;28;20535;-82
2021/11/25 03:59:23;;;;;;;2.28;1.40;;;4.40;92.90;;;;;;5095940;28;20534;-82
2021/11/25 04:01:49;;;;;;;4.13;1.65;;;4.40;92.90;;;;;;5077539;28;20064;-82
2021/11/25 04:04:15;;;;;;;2.58;1.10;;;4.50;92.90;;;;;;5078897;28;20043;-82
2021/11/25 04:06:41;;;;;;;3.85;1.60;;;4.50;92.90;;;;;;5077269;28;20027;-82
2021/11/25 04:09:07;;;;;;;5.85;2.53;;;4.40;92.90;;;;;;5095717;28;20036;-82
2021/11/25 04:11:35;;;;;;;4.70;1.95;;;4.40;92.90;;;;;;5078063;28;20028;-81
2021/11/25 04:14:03;;;;;;;2.78;1.63;;;4.40;92.90;;;;;;5075368;28;20045;-82
2021/11/25 04:16:30;;;;;;;4.07;2.10;;;4.40;92.90;;;;;;5078714;28;20563;-82
2021/11/25 04:18:56;;;;;;;4.63;1.92;;;4.40;92.90;;;;;;5096748;28;20036;-81
2021/11/25 04:21:22;;;;;;;3.63;1.70;;;4.50;92.90;;;;;;5094983;28;20085;-82
2021/11/25 04:23:48;;;;;;;3.20;1.80;;;4.50;92.90;;;;;;5080027;28;20046;-82
2021/11/25 04:26:14;;;;;;;2.70;1.40;;;4.40;92.90;;;;;;5112607;28;20052;-82
2021/11/25 04:28:40;;;;;;;3.40;1.70;;;4.40;92.90;;;;;;5113823;28;20047;-82
2021/11/25 04:36:23;;;;;;;3.60;1.90;;;4.50;92.90;;;;;;5118398;28;20404;-82
2021/11/25 04:38:49;;;;;;;3.30;1.73;;;4.50;92.90;;;;;;5134815;28;20063;-82
2021/11/25 04:41:15;;;;;;;3.05;1.70;;;4.50;92.90;;;;;;5099184;28;20031;-82
2021/11/25 04:43:41;;;;;;;4.90;2.38;;;4.60;92.90;;;;;;5096979;28;20057;-82
2021/11/25 04:46:06;;;;;;;4.97;2.17;;;4.50;92.90;;;;;;5106682;28;20496;-82
2021/11/25 04:48:32;;;;;;;3.10;1.80;;;4.40;92.80;;;;;;5092309;28;20055;-81
2021/11/25 04:50:58;;;;;;;3.75;1.90;;;4.50;92.90;;;;;;5126598;28;20044;-82
2021/11/25 04:53:24;;;;;;;4.85;2.40;;;4.50;92.80;;;;;;5105996;28;20043;-82
2021/11/25 04:55:51;;;;;;;4.05;2.28;;;4.60;92.90;;;;;;5092129;28;20023;-82
2021/11/25 04:58:17;;;;;;;3.53;1.77;;;4.40;92.80;;;;;;5111019;28;20051;-82
2021/11/25 05:00:44;;;;;;;3.28;1.65;;;4.60;92.80;;;;;;5109165;28;20091;-82
2021/11/25 05:03:09;;;;;;;3.30;1.88;;;4.60;92.90;;;;;;5110345;28;20054;-82
2021/11/25 05:05:35;;;;;;;3.88;1.60;;;4.50;92.80;;;;;;5074076;28;20055;-82
2021/11/25 05:08:01;;;;;;;3.20;1.80;;;4.40;92.80;;;;;;5110944;28;20057;-82
2021/11/25 05:10:27;;;;;;;3.40;1.98;;;4.40;93.10;;;;;;5109140;28;20056;-82
2021/11/25 05:12:53;;;;;;;3.65;1.80;;;4.40;92.90;;;;;;5109999;28;20056;-82
2021/11/25 05:15:19;;;;;;;4.57;2.17;;;4.50;92.90;;;;;;5128204;28;20035;-82
2021/11/25 05:17:45;;;;;;;4.97;2.15;;;4.40;92.90;;;;;;5109637;28;20039;-82
2021/11/25 05:20:13;;;;;;;6.28;2.30;;;4.30;92.80;;;;;;5108842;28;20040;-82
2021/11/25 05:22:39;;;;;;;7.63;2.92;;;4.30;92.80;;;;;;5110057;28;20505;-82
2021/11/25 05:25:07;;;;;;;5.03;2.53;;;4.40;92.90;;;;;;5091921;28;20046;-82
2021/11/25 05:27:33;;;;;;;3.80;2.15;;;4.40;92.90;;;;;;5075605;28;20039;-82
2021/11/25 05:29:59;;;;;;;4.20;1.38;;;4.40;92.90;;;;;;5092275;28;20055;-82
2021/11/25 05:32:25;;;;;;;4.40;1.80;;;4.40;92.90;;;;;;5129677;28;20036;-82
2021/11/25 05:34:50;;;;;;;2.80;1.73;;;4.40;92.90;;;;;;5089541;28;20048;-82
2021/11/25 05:37:18;;;;;;;3.28;1.80;;;4.40;92.90;;;;;;5072017;28;20032;-82
2021/11/25 05:39:44;;;;;;;2.72;1.40;;;4.30;92.80;;;;;;5097486;27;20055;-81
2021/11/25 05:42:10;;;;;;;2.67;1.45;;;4.60;92.90;;;;;;5106375;28;20094;-82
2021/11/25 05:44:37;;;;;;;4.68;2.20;;;4.50;92.90;;;;;;5084435;28;20040;-83
2021/11/25 05:47:03;;;;;;;3.80;1.98;;;4.50;92.90;;;;;;5098107;28;20044;-82
2021/11/25 05:49:30;;;;;;;4.22;2.15;;;4.30;92.80;;;;;;5098130;28;20053;-83
2021/11/25 05:51:56;;;;;;;4.28;1.92;;;4.40;92.80;;;;;;5096608;28;20139;-83
2021/11/25 05:54:21;;;;;;;6.68;2.67;;;4.50;92.80;;;;;;5080093;28;20071;-83
2021/11/25 05:56:47;;;;;;;4.97;2.38;;;4.50;92.80;;;;;;5113743;28;20066;-82
2021/11/25 05:59:13;;;;;;;6.03;2.80;;;4.40;92.70;;;;;;5096548;28;20444;-83
2021/11/25 06:01:39;;;;;;;7.15;3.58;;;4.30;92.70;;;;;;5079696;28;20039;-83
2021/11/25 06:04:04;;;;;;;5.50;2.53;;;4.40;92.80;;;;;;5080202;28;20127;-82
2021/11/25 06:06:32;;;;;;;6.95;2.92;;;4.30;92.70;;;;;;5098205;28;20039;-83
2021/11/25 06:08:58;;;;;;;5.63;2.88;;;4.40;92.80;;;;;;5085034;28;20048;-82
2021/11/25 06:11:24;;;;;;;5.05;2.47;;;4.40;92.80;;;;;;5117276;28;20126;-83
2021/11/25 06:13:50;;;;;;;6.35;3.00;;;4.30;92.70;;;;;;5081413;28;20048;-83
2021/11/25 06:16:15;;;;;;;5.03;2.72;;;4.30;92.70;;;;;;5062620;28;20036;-83
2021/11/25 06:18:42;;;;;;;7.07;3.50;;;4.30;92.70;;;;;;5080381;28;20032;-83
2021/11/25 06:21:08;;;;;;;6.40;3.13;;;4.40;92.70;;;;;;5098692;28;20039;-83
2021/11/25 06:23:34;;;;;;;7.88;4.07;;;4.60;92.80;;;;;;5066953;28;20073;-83
2021/11/25 06:26:00;;;;;;;7.72;4.07;;;4.30;92.70;;;;;;5084026;28;20470;-82
2021/11/25 06:28:26;;;;;;;7.57;3.67;;;4.50;92.70;;;;;;5117208;28;20050;-82
2021/11/25 06:30:51;;;;;;;6.30;3.58;;;4.40;92.60;;;;;;5099519;28;20040;-83
2021/11/25 06:33:17;;;;;;;6.97;3.70;;;4.40;92.60;;;;;;5082976;28;20427;-83
2021/11/25 06:35:43;;;;;;;7.25;3.60;;;4.50;92.60;;;;;;5068015;28;20104;-82
2021/11/25 06:38:09;;;;;;;8.07;3.92;;;4.50;92.60;;;;;;5069504;28;20576;-84
2021/11/25 06:40:38;;;;;;;6.63;3.60;;;4.50;92.60;;;;;;5072837;28;20043;-83
2021/11/25 06:43:07;;;;;;;7.28;3.38;;;4.40;92.60;;;;;;5083241;28;20058;-82
2021/11/25 06:45:35;;;;;;;8.35;4.00;;;4.40;92.80;;;;;;5102324;28;20036;-83
2021/11/25 06:48:01;;;;;;;6.95;3.63;;;4.40;92.50;;;;;;5072112;28;20043;-83
2021/11/25 06:50:27;;;;;;;8.73;3.63;;;4.50;92.60;;;;;;5109443;28;20067;-83
2021/11/25 06:52:53;;;;;;;8.48;3.90;;;4.40;92.60;;;;;;5106769;28;20039;-82
2021/11/25 06:55:19;;;;;;;6.57;3.30;;;4.40;92.60;;;;;;5097223;28;20409;-82
2021/11/25 06:57:49;;;;;;;4.95;2.50;;;4.50;92.60;;;;;;5131807;28;20127;-83
2021/11/25 07:00:17;;;;;;;5.20;2.53;;;4.60;92.60;;;;;;5095876;28;20450;-83
2021/11/25 07:02:43;;;;;;;4.85;2.53;;;4.50;92.60;;;;;;5080269;28;20063;-83
2021/11/25 07:05:10;;;;;;;4.93;2.33;;;4.50;92.60;;;;;;5087090;28;20032;-83
2021/11/25 07:07:37;;;;;;;4.57;2.45;;;4.80;92.70;;;;;;5103566;28;20126;-83
2021/11/25 07:10:04;;;;;;;4.78;2.20;;;4.50;92.60;;;;;;5070958;28;20050;-82
2021/11/25 07:12:30;;;;;;;5.60;2.90;;;4.50;92.60;;;;;;5086895;28;20054;-84
2021/11/25 07:14:56;;;;;;;4.65;2.60;;;4.50;92.60;;;;;;5087222;28;20107;-82
2021/11/25 07:17:22;;;;;;;5.88;2.70;;;4.50;92.60;;;;;;5094218;28;20040;-83
2021/11/25 07:19:48;;;;;;;4.38;2.33;;;4.50;92.60;;;;;;5093501;28;20456;-83
2021/11/25 07:22:13;;;;;;;3.92;2.17;;;4.60;92.60;;;;;;5059399;28;20059;-82
2021/11/25 07:24:40;;;;;;;4.43;2.30;;;4.60;92.60;;;;;;5041530;28;20548;-82
2021/11/25 07:27:06;;;;;;;5.93;2.63;;;4.50;92.60;;;;;;5075119;28;20508;-83
2021/11/25 07:29:34;;;;;;;5.10;2.50;;;4.50;92.60;;;;;;5052375;28;20090;-83
2021/11/25 07:32:00;;;;;;;4.30;2.28;;;4.50;92.60;;;;;;5050052;28;20044;-83
2021/11/25 07:34:26;;;;;;;7.05;3.38;;;4.60;92.60;;;;;;5053152;28;20034;-82
2021/11/25 07:36:52;;;;;;;5.05;2.58;;;4.50;92.60;;;;;;5070123;28;20119;-82
2021/11/25 07:39:22;;;;;;;5.80;2.72;;;4.50;92.60;;;;;;5084906;28;20044;-83
2021/11/25 07:41:48;;;;;;;5.50;2.85;;;4.50;92.60;;;;;;5035896;28;20037;-83
2021/11/25 07:44:14;;;;;;;6.60;3.08;;;4.50;92.60;;;;;;5051112;28;20406;-83
2021/11/25 07:46:40;;;;;;;4.72;2.58;;;4.50;92.60;;;;;;5025081;28;20539;-82
2021/11/25 07:49:06;;;;;;;5.60;2.78;;;4.60;92.60;;;;;;4994692;28;20045;-83
2021/11/25 07:51:32;;;;;;;5.63;2.63;;;4.60;92.60;;;;;;5022042;28;20041;-83
2021/11/25 07:54:00;;;;;;;6.40;3.08;;;4.60;92.60;;;;;;5039747;28;20122;-83
2021/11/25 07:56:27;;;;;;;5.68;2.78;;;4.60;92.50;;;;;;5054666;28;20037;-84
2021/11/25 07:58:56;;;;;;;6.20;2.90;;;4.60;92.50;;;;;;5034062;28;20055;-86
2021/11/25 08:01:24;;;;;;;4.28;2.20;;;4.60;92.50;;;;;;5051092;28;20037;-83
2021/11/25 08:03:50;;;;;;;7.20;2.97;;;4.60;92.50;;;;;;5021817;28;20542;-83
2021/11/25 08:06:16;;;;;;;6.97;3.58;;;4.60;92.50;;;;;;5035376;28;20044;-79
2021/11/25 08:08:42;;;;;;;6.03;3.53;;;4.60;92.40;;;;;;5053016;28;20048;-79
2021/11/25 08:11:08;;;;;;;7.88;3.85;;;4.60;92.40;;;;;;5034452;28;20056;-80
2021/11/25 08:13:35;;;;;;;7.32;3.90;;;4.70;92.50;;;;;;5035091;28;20072;-79
2021/11/25 08:16:00;;;;;;;6.32;3.63;;;4.70;92.40;;;;;;5057720;28;20041;-77
2021/11/25 08:18:26;;;;;;;8.48;4.00;;;4.60;92.40;;;;;;5106758;28;20082;-78
2021/11/25 08:20:52;;;;;;;7.35;3.83;;;4.70;92.40;;;;;;5098389;28;20486;-79
2021/11/25 08:23:18;;;;;;;6.88;3.72;;;4.60;92.30;;;;;;5099895;28;20063;-80
2021/11/25 08:25:46;;;;;;;6.15;3.10;;;4.70;92.30;;;;;;5116310;28;20504;-77
2021/11/25 08:28:12;;;;;;;7.53;3.78;;;4.70;92.30;;;;;;5095390;28;20055;-77
2021/11/25 08:30:43;;;;;;;7.68;3.95;;;4.60;92.30;;;;;;5095146;28;20100;-78
2021/11/25 08:33:11;;;;;;;7.07;3.90;;;4.70;92.30;;;;;;5078840;28;20123;-78
2021/11/25 08:43:31;;;;;;;5.47;3.22;;;4.80;92.20;;;;;;4894218;29;20048;-79
2021/11/25 08:46:22;;;;;;;5.90;2.93;;;4.90;92.20;;;;;;4787184;29;20141;-81
2021/11/25 08:48:55;;;;;;;7.65;3.92;;;5.10;92.20;;;;;;4775721;29;20043;-80
2021/11/25 08:54:17;;;;;;;8.05;4.57;;;4.90;92.10;;;;;;4773992;30;20104;-79
2021/11/25 08:56:56;;;;;;;8.13;4.28;;;5.00;92.10;;;;;;4754187;30;20048;-83
2021/11/25 08:59:22;;;;;;;7.63;3.78;;;4.90;92.10;;;;;;4752815;30;20046;-84
2021/11/25 09:01:49;;;;;;;7.00;3.95;;;4.90;92.10;;;;;;4752867;30;20142;-80
2021/11/25 09:04:15;;;;;;;6.50;3.47;;;5.00;92.10;;;;;;4760511;30;20089;-83
2021/11/25 09:06:41;;;;;;;7.00;3.75;;;5.00;92.10;;;;;;4769795;30;20086;-78
2021/11/25 09:09:08;;;;;;;6.93;4.05;;;5.10;92.10;;;;;;4761815;30;20088;-80
2021/11/25 09:11:35;;;;;;;7.20;3.75;;;5.10;92.00;;;;;;4757648;30;20068;-79
2021/11/25 09:14:01;;;;;;;6.93;3.80;;;5.10;92.00;;;;;;4828015;29;20057;-79
2021/11/25 09:16:27;;;;;;;7.82;3.50;;;5.30;92.00;;;;;;4824251;29;20054;-78
2021/11/25 09:18:53;;;;;;;7.40;3.53;;;5.30;92.00;;;;;;4883140;29;20050;-81
2021/11/25 09:21:29;;;;;;;6.22;3.33;;;5.30;92.00;;;;;;4943131;28;20125;-84
2021/11/25 09:23:58;;;;;;;5.50;3.40;;;5.30;91.90;;;;;;5040494;28;20182;-82
2021/11/25 09:26:40;;;;;;;7.47;3.88;;;5.40;91.90;;;;;;5035805;28;20496;-79
2021/11/25 09:29:08;;;;;;;6.30;3.28;;;5.30;91.80;;;;;;5013041;28;20041;-80
2021/11/25 09:32:00;;;;;;;6.72;3.47;;;5.30;91.90;;;;;;5013386;28;20069;-81
2021/11/25 09:34:31;;;;;;;;;;;5.40;91.90;;;;;;5044064;28;20095;-82
2021/11/25 09:36:56;;;;;;;5.55;2.75;;;5.40;91.80;;;;;;4993084;28;20355;-80
2021/11/25 09:39:48;;;;;;;6.55;3.60;;;5.40;91.80;;;;;;4993497;28;20050;-82
2021/11/25 09:42:15;;;;;;;6.38;3.50;;;5.40;91.80;;;;;;4981444;28;20507;-79
2021/11/25 09:44:41;;;;;;;6.30;3.47;;;5.40;91.90;;;;;;5018915;28;20077;-80
2021/11/25 09:47:08;;;;;;;5.25;3.10;;;5.20;91.80;;;;;;5014822;28;20104;-82
2021/11/25 09:49:47;;;;;;;6.47;3.33;;;5.30;91.90;;;;;;4994938;28;20054;-83
2021/11/25 09:52:24;;;;;;;6.53;3.40;;;5.20;92.00;;;;;;4977264;28;20045;-83
2021/11/25 09:55:32;;;;;;;6.47;3.88;;;5.30;92.00;;;;;;5025201;28;20043;-85
2021/11/25 09:57:59;;;;;;;6.50;3.85;;;5.20;92.00;;;;;;4998437;28;20038;-82
2021/11/25 10:00:47;;;;;;;5.95;3.60;;;5.10;92.00;;;;;;4960033;28;20172;-82
2021/11/25 10:03:16;;;;;;;5.05;2.45;;;5.20;92.10;;;;;;4975510;28;20121;-80
2021/11/25 10:09:58;;;;;;;6.03;3.25;;;5.20;92.10;;;;;;4897186;29;20059;-80
2021/11/25 10:12:35;;;;;;;4.65;2.70;;;5.20;92.10;;;;;;4897504;29;20049;-80
2021/11/25 10:15:29;;;;;;;4.47;2.50;;;5.30;92.10;;;;;;4897701;29;20131;-79
2021/11/25 10:17:58;;;;;;;4.43;2.35;;;5.50;92.20;;;;;;4884054;29;20041;-79
2021/11/25 10:20:30;;;;;;;5.85;3.13;;;5.40;92.20;;;;;;4867551;29;20044;-78
2021/11/25 10:23:14;;;;;;;;;;;5.30;92.10;;;;;;4883122;29;20045;-78
2021/11/25 10:25:46;;;;;;;4.93;2.83;;;5.30;92.10;;;;;;4905829;29;19931;-80
2021/11/25 10:28:39;;;;;;;5.22;2.80;;;5.20;92.30;;;;;;4893444;29;20032;-82
2021/11/25 10:31:13;;;;;;;5.55;2.90;;;5.30;92.20;;;;;;4884766;29;20043;-82
2021/11/25 10:33:55;;;;;;;5.15;3.03;;;5.30;92.10;;;;;;4907461;29;20075;-84
2021/11/25 10:36:33;;;;;;;;;;;5.50;92.20;;;;;;4924360;29;20040;-83
2021/11/25 10:39:27;;;;;;;3.80;2.38;;;5.30;92.10;;;;;;4976654;28;20020;-84
2021/11/25 10:42:03;;;;;;;4.97;2.75;;;5.40;92.10;;;;;;4924434;29;20478;-85
2021/11/25 10:44:46;;;;;;;5.93;3.25;;;5.40;92.10;;;;;;4985904;28;20033;-81
2021/11/25 10:47:15;;;;;;;5.65;3.00;;;5.40;92.10;;;;;;5058227;28;20036;-80
2021/11/25 11:00:42;;;;;;;5.70;2.97;;;5.60;92.00;;;;;;4948711;28;20487;-84
2021/11/25 11:03:10;;;;;;;4.70;2.38;;;5.70;92.00;;;;;;4885311;29;20074;-85
2021/11/25 11:05:48;;;;;;;7.47;3.45;;;5.70;92.00;;;;;;4915082;29;20057;-84
2021/11/25 11:08:22;;;;;;;5.65;3.03;;;5.60;92.00;;;;;;4884974;29;20040;-85
2021/11/25 11:11:23;;;;;;;6.28;3.00;;;5.50;92.00;;;;;;4886229;29;20482;-84
2021/11/25 11:14:15;;;;;;;5.18;2.78;;;5.90;92.20;;;;;;4915563;29;20052;-85
2021/11/25 11:16:45;;;;;;;7.45;3.83;;;5.70;92.10;;;;;;4905341;29;20044;-85
2021/11/25 11:19:13;;;;;;;7.35;3.20;;;5.80;92.10;;;;;;4918872;29;20115;-84
2021/11/25 11:21:43;;;;;;;7.28;4.00;;;5.80;92.00;;;;;;4886333;29;20095;-85
2021/11/25 11:24:23;;;;;;;6.10;3.40;;;5.90;92.00;;;;;;4887718;29;20096;-84
2021/11/25 11:27:02;;;;;;;6.32;3.40;;;5.90;92.00;;;;;;4887028;29;20040;-85
2021/11/25 11:29:30;;;;;;;6.25;3.25;;;5.90;92.00;;;;;;4873180;29;20496;-85
2021/11/25 11:31:59;;;;;;;6.43;3.42;;;5.90;92.00;;;;;;4938811;28;20043;-84
2021/11/25 11:34:27;;;;;;;7.07;3.30;;;5.90;92.00;;;;;;4943993;28;20587;-84
2021/11/25 11:36:56;;;;;;;6.40;3.38;;;6.20;92.10;;;;;;4928967;28;20043;-85
2021/11/25 11:39:25;;;;;;;5.35;3.08;;;6.00;92.10;;;;;;4944682;28;20039;-85
2021/11/25 11:41:54;;;;;;;6.75;3.28;;;6.10;92.10;;;;;;4926863;28;20118;-84
2021/11/25 11:44:23;;;;;;;7.22;3.60;;;6.20;92.10;;;;;;4936549;28;20567;-84
2021/11/25 11:46:51;;;;;;;6.28;3.20;;;6.10;92.10;;;;;;4960787;28;20046;-84
2021/11/25 11:49:21;;;;;;;7.05;3.25;;;6.10;92.00;;;;;;4959035;28;20155;-84
2021/11/25 11:52:06;;;;;;;6.40;3.30;;;6.20;92.00;;;;;;4999751;28;20067;-84
2021/11/25 11:54:40;;;;;;;8.93;4.25;;;6.20;92.00;;;;;;5024198;28;20041;-84
2021/11/25 11:57:36;;;;;;;6.63;3.08;;;6.20;92.00;;;;;;5036701;28;20534;-80
2021/11/25 12:00:34;;;;;;;6.32;3.25;;;6.20;92.00;;;;;;5020265;28;20037;-80
2021/11/25 12:03:00;;;;;;;4.72;2.72;;;6.50;92.10;;;;;;5051507;28;20041;-81
2021/11/25 12:05:44;;;;;;;7.50;3.30;;;6.30;92.00;;;;;;5060940;28;20092;-80
2021/11/25 12:08:44;;;;;;;7.95;3.50;;;6.30;92.00;;;;;;5080942;28;20046;-82
2021/11/25 12:11:11;;;;;;;6.13;3.13;;;6.40;92.10;;;;;;5093605;28;20044;-79
2021/11/25 12:14:00;;;;;;;6.07;3.47;;;6.40;92.10;;;;;;5113998;28;20040;-80
2021/11/25 12:16:51;;;;;;;5.90;2.85;;;6.80;92.10;;;;;;5098160;28;20099;-80
2021/11/25 12:19:34;;;;;;;7.13;3.25;;;6.60;92.10;;;;;;4974201;28;20046;-82
2021/11/25 12:22:15;;;;;;;6.18;2.90;;;6.60;92.10;;;;;;4964267;28;20038;-82
2021/11/25 12:24:46;;;;;;;7.23;3.10;;;6.70;92.10;;;;;;4943316;28;20042;-79
2021/11/25 12:27:35;;;;;;;5.93;3.03;;;6.70;92.00;;;;;;4975212;28;20376;-79
2021/11/25 12:30:12;;;;;;;7.88;3.22;;;6.80;92.10;;;;;;4962597;28;20120;-80
2021/11/25 12:32:51;;;;;;;6.32;2.97;;;6.70;92.00;;;;;;4991357;28;20065;-78
2021/11/25 12:35:39;;;;;;;7.93;3.60;;;6.80;92.00;;;;;;4943058;28;20046;-81
2021/11/25 12:38:09;;;;;;;6.22;3.10;;;6.80;92.00;;;;;;4978786;28;20034;-79
2021/11/25 12:40:38;;;;;;;6.03;3.10;;;6.80;91.90;;;;;;4947078;28;20042;-78
2021/11/25 12:43:10;;;;;;;5.97;2.75;;;6.80;92.00;;;;;;4974642;28;20038;-79
2021/11/25 12:46:42;;;;;;;7.00;3.40;;;6.70;92.00;;;;;;4956197;28;20088;-80
2021/11/25 12:49:25;;;;;;;7.63;3.20;;;6.80;92.10;;;;;;4943626;28;20042;-80
2021/11/25 12:51:51;;;;;;;7.05;3.47;;;6.70;92.10;;;;;;4975721;28;20073;-79
2021/11/25 12:58:13;;;;;;;7.13;3.63;;;6.80;92.10;;;;;;5025952;28;20049;-79
2021/11/25 13:01:05;;;;;;;7.78;4.20;;;6.90;92.10;;;;;;4980614;28;20038;-84
2021/11/25 13:03:33;;;;;;;8.45;3.50;;;6.90;92.10;;;;;;5018215;28;20057;-83
2021/11/25 13:06:00;;;;;;;6.93;3.63;;;6.80;92.10;;;;;;5014582;28;20088;-79
2021/11/25 13:08:34;;;;;;;7.95;3.78;;;6.90;92.10;;;;;;5015410;28;20068;-81
2021/11/25 13:11:02;;;;;;;6.22;3.20;;;6.90;92.10;;;;;;4999370;28;20049;-78
2021/11/25 13:13:32;;;;;;;6.35;2.95;;;7.00;92.10;;;;;;5033762;28;20146;-78
2021/11/25 13:16:04;;;;;;;7.65;3.72;;;7.10;92.10;;;;;;5015642;28;20107;-79
2021/11/25 13:18:48;;;;;;;8.00;3.88;;;7.00;92.10;;;;;;5013842;28;20133;-77
2021/11/25 13:24:40;;;;;;;6.60;3.53;;;7.10;92.10;;;;;;5010513;28;20064;-83
2021/11/25 13:27:08;;;;;;;5.65;2.97;;;7.20;92.10;;;;;;4954749;28;20082;-79
2021/11/25 13:29:56;;;;;;;6.40;3.30;;;7.10;92.10;;;;;;4973692;28;20174;-79
2021/11/25 13:32:25;;;;;;;7.85;3.40;;;7.10;92.10;;;;;;4942280;28;20062;-79
2021/11/25 13:34:54;;;;;;;6.25;3.20;;;7.10;92.10;;;;;;4963692;28;20133;-81
2021/11/25 13:37:31;;;;;;;7.45;2.85;;;7.10;92.40;;;;;;4978753;28;20046;-79
2021/11/25 13:40:04;;;;;;;5.57;2.85;;;7.20;92.10;;;;;;4978728;28;20514;-80
2021/11/25 13:42:33;;;;;;;5.20;2.78;;;7.20;92.10;;;;;;4978421;28;20054;-80
2021/11/25 13:45:08;;;;;;;6.57;3.10;;;7.30;92.10;;;;;;4977467;28;20046;-82
2021/11/25 13:47:36;;;;;;;6.63;3.00;;;7.40;92.10;;;;;;4977517;28;20054;-80
2021/11/25 13:50:24;;;;;;;4.80;2.40;;;7.30;92.10;;;;;;4977031;28;20042;-80
2021/11/25 13:53:18;;;;;;;3.85;2.10;;;7.30;92.10;;;;;;4998602;28;20038;-79
2021/11/25 13:55:44;;;;;;;6.18;2.90;;;7.40;92.20;;;;;;4944255;28;20066;-81
2021/11/25 13:58:10;;;;;;;5.55;2.60;;;7.40;92.20;;;;;;4970897;28;20428;-80
2021/11/25 14:00:40;;;;;;;5.45;2.42;;;7.50;92.10;;;;;;5022533;28;20041;-79
2021/11/25 14:03:30;;;;;;;5.10;2.37;;;7.50;92.10;;;;;;5020480;28;20044;-81